Time;durP1;ratioP1;P1;durP2;ratioP2;P2;SDS_P1;SDS_P2;PMS_P1;PMS_P2;Temp;Humidity;BMP_temperature;BMP_pressure;BME280_temperature;BME280_humidity;BME280_pressure;Samples;Min_cycle;Max_cycle;Signal;HPM_P1;HPM_P2
2021/03/02 00:01:11;;;;;;;29.63;16.80;;;4.80;99.90;;;;;;5013220;28;20018;-91
2021/03/02 00:03:38;;;;;;;30.35;17.05;;;4.80;99.90;;;;;;5010029;28;20050;-92
2021/03/02 00:06:06;;;;;;;26.90;15.88;;;4.80;99.90;;;;;;5027250;28;20033;-90
2021/03/02 00:08:32;;;;;;;27.02;15.88;;;4.80;99.90;;;;;;5012634;28;20057;-91
2021/03/02 00:11:01;;;;;;;30.00;16.92;;;4.80;99.90;;;;;;5013049;28;20046;-90
2021/03/02 00:13:28;;;;;;;27.85;15.88;;;4.80;99.90;;;;;;5013375;28;20088;-90
2021/03/02 00:16:03;;;;;;;31.90;17.13;;;4.70;99.90;;;;;;5009991;28;20025;-92
2021/03/02 00:18:36;;;;;;;28.17;16.27;;;4.70;99.90;;;;;;4994021;28;20088;-92
2021/03/02 00:21:06;;;;;;;28.75;15.90;;;4.70;99.90;;;;;;4993902;28;20357;-91
2021/03/02 00:23:38;;;;;;;28.77;15.32;;;4.70;99.90;;;;;;5009752;28;20027;-93
2021/03/02 00:26:07;;;;;;;28.27;16.38;;;4.60;99.90;;;;;;5009687;28;20807;-93
2021/03/02 00:28:35;;;;;;;30.58;16.05;;;4.60;99.90;;;;;;5011201;28;20027;-91
2021/03/02 00:31:02;;;;;;;28.77;16.38;;;4.60;99.90;;;;;;5011940;28;20026;-91
2021/03/02 00:33:29;;;;;;;31.33;16.15;;;4.60;99.90;;;;;;5000695;28;20424;-92
2021/03/02 00:35:55;;;;;;;26.00;14.80;;;4.60;99.90;;;;;;5016243;28;20018;-92
2021/03/02 00:38:21;;;;;;;29.67;16.10;;;4.50;99.90;;;;;;5012388;28;20484;-92
2021/03/02 00:40:46;;;;;;;27.08;15.50;;;4.50;99.90;;;;;;5016671;28;20026;-91
2021/03/02 00:43:12;;;;;;;25.92;14.18;;;4.50;99.90;;;;;;5015409;28;20515;-91
2021/03/02 00:45:38;;;;;;;26.95;15.60;;;4.50;99.90;;;;;;5013668;28;20014;-92
2021/03/02 00:48:09;;;;;;;28.60;15.52;;;4.40;99.90;;;;;;5019865;28;20033;-90
2021/03/02 00:50:35;;;;;;;28.60;14.45;;;4.40;99.90;;;;;;5001897;28;20088;-92
2021/03/02 00:53:01;;;;;;;28.17;15.90;;;4.40;99.90;;;;;;5009939;28;20500;-93
2021/03/02 00:55:26;;;;;;;27.08;15.90;;;4.40;99.90;;;;;;5014047;28;20061;-91
2021/03/02 00:57:52;;;;;;;28.60;16.35;;;4.40;99.90;;;;;;5014907;28;20025;-92
2021/03/02 01:00:18;;;;;;;27.35;15.75;;;4.30;99.90;;;;;;5019131;28;20022;-92
2021/03/02 01:02:44;;;;;;;31.42;17.23;;;4.40;99.90;;;;;;5014626;28;20054;-91
2021/03/02 01:05:09;;;;;;;32.75;16.83;;;4.40;99.90;;;;;;5010017;28;20481;-91
2021/03/02 01:07:36;;;;;;;30.25;16.88;;;4.40;99.90;;;;;;5011114;28;20070;-91
2021/03/02 01:10:05;;;;;;;29.38;16.00;;;4.40;99.90;;;;;;4994317;28;20567;-91
2021/03/02 01:12:30;;;;;;;28.85;16.33;;;4.30;99.90;;;;;;5010227;28;20027;-91
2021/03/02 01:14:57;;;;;;;32.45;17.83;;;4.30;99.90;;;;;;5023400;28;20135;-91
2021/03/02 01:17:23;;;;;;;29.70;15.95;;;4.30;99.90;;;;;;5011021;28;20109;-91
2021/03/02 01:19:48;;;;;;;26.80;15.20;;;4.30;99.90;;;;;;5004923;28;20069;-92
2021/03/02 01:22:14;;;;;;;29.50;17.23;;;4.20;99.90;;;;;;5009307;28;20035;-92
2021/03/02 01:24:40;;;;;;;29.60;16.55;;;4.20;99.90;;;;;;5010463;28;20030;-91
2021/03/02 01:27:05;;;;;;;31.77;16.88;;;4.20;99.90;;;;;;5027471;28;20495;-92
2021/03/02 01:29:31;;;;;;;31.83;17.42;;;4.20;99.90;;;;;;5011034;28;20541;-92
2021/03/02 01:31:57;;;;;;;27.92;15.57;;;4.20;99.90;;;;;;5008312;28;20027;-91
2021/03/02 01:34:22;;;;;;;27.13;14.60;;;4.20;99.90;;;;;;5008388;28;20039;-91
2021/03/02 01:36:48;;;;;;;27.15;14.52;;;4.10;99.90;;;;;;5007802;28;20054;-90
2021/03/02 01:39:14;;;;;;;28.35;15.65;;;4.10;99.90;;;;;;5007636;28;20026;-92
2021/03/02 01:41:44;;;;;;;28.65;15.02;;;4.10;99.90;;;;;;5008253;28;20034;-91
2021/03/02 01:44:09;;;;;;;26.58;14.93;;;4.00;99.90;;;;;;5007364;28;20038;-93
2021/03/02 01:46:35;;;;;;;29.20;15.38;;;4.00;99.90;;;;;;5009344;28;20037;-92
2021/03/02 01:49:00;;;;;;;27.52;15.75;;;4.00;99.90;;;;;;5018605;28;20025;-91
2021/03/02 01:51:26;;;;;;;27.23;15.00;;;4.00;99.90;;;;;;5013630;28;20116;-91
2021/03/02 01:53:52;;;;;;;29.35;16.48;;;3.90;99.90;;;;;;5010307;28;20112;-92
2021/03/02 01:56:17;;;;;;;27.80;15.77;;;3.90;99.90;;;;;;5014552;28;20539;-91
2021/03/02 01:58:43;;;;;;;27.25;15.02;;;3.90;99.90;;;;;;5019405;28;20026;-88
2021/03/02 02:01:09;;;;;;;30.17;16.13;;;3.90;99.90;;;;;;5022058;28;20040;-89
2021/03/02 02:03:55;;;;;;;29.63;15.73;;;3.90;99.90;;;;;;5019852;28;20380;-90
2021/03/02 02:06:26;;;;;;;29.80;16.15;;;3.90;99.90;;;;;;5017585;28;20125;-91
2021/03/02 02:08:55;;;;;;;29.73;16.15;;;3.80;99.90;;;;;;5016396;28;20050;-91
2021/03/02 02:11:43;;;;;;;30.65;16.98;;;3.80;99.90;;;;;;5016319;28;20072;-90
2021/03/02 02:14:37;;;;;;;33.20;17.63;;;3.80;99.90;;;;;;5027616;28;20025;-91
2021/03/02 02:17:07;;;;;;;30.48;17.30;;;3.80;99.90;;;;;;5019456;28;20140;-91
2021/03/02 02:19:53;;;;;;;29.48;15.90;;;3.70;99.90;;;;;;5036990;28;20071;-92
2021/03/02 02:22:40;;;;;;;29.60;16.42;;;3.70;99.90;;;;;;5035259;28;20037;-90
2021/03/02 02:25:33;;;;;;;28.88;15.05;;;3.70;99.90;;;;;;5015748;28;20062;-91
2021/03/02 02:28:01;;;;;;;31.45;15.80;;;3.70;99.90;;;;;;4996995;28;20030;-91
2021/03/02 02:30:30;;;;;;;29.30;15.30;;;3.60;99.90;;;;;;5012970;28;20029;-91
2021/03/02 02:32:56;;;;;;;27.55;15.57;;;3.60;99.90;;;;;;5013666;28;20121;-92
2021/03/02 02:35:23;;;;;;;29.13;14.90;;;3.60;99.90;;;;;;5013790;28;20022;-91
2021/03/02 02:37:50;;;;;;;31.67;16.85;;;3.60;99.90;;;;;;5014284;28;20105;-92
2021/03/02 02:40:18;;;;;;;32.95;17.02;;;3.50;99.90;;;;;;5013360;28;20049;-92
2021/03/02 02:42:48;;;;;;;27.42;16.20;;;3.50;99.90;;;;;;5013605;28;20030;-92
2021/03/02 02:45:15;;;;;;;29.30;16.10;;;3.50;99.90;;;;;;5013151;28;20121;-92
2021/03/02 02:47:41;;;;;;;28.30;15.45;;;3.40;99.90;;;;;;5013043;28;20022;-92
2021/03/02 02:50:08;;;;;;;29.17;15.95;;;3.40;99.90;;;;;;5012918;28;20072;-91
2021/03/02 02:52:34;;;;;;;29.60;16.10;;;3.40;99.90;;;;;;5013708;28;20038;-90
2021/03/02 02:55:02;;;;;;;29.23;16.48;;;3.40;99.90;;;;;;5013050;28;20022;-92
2021/03/02 02:57:30;;;;;;;29.95;15.45;;;3.40;99.90;;;;;;5012885;28;20022;-93
2021/03/02 02:59:58;;;;;;;31.27;16.60;;;3.40;99.90;;;;;;5015579;28;20030;-93
2021/03/02 03:02:27;;;;;;;32.22;16.80;;;3.40;99.90;;;;;;5015716;28;20090;-93
2021/03/02 03:04:58;;;;;;;33.95;17.67;;;3.40;99.90;;;;;;5012994;28;20022;-91
2021/03/02 03:07:36;;;;;;;35.88;18.40;;;3.30;99.90;;;;;;4997327;28;20033;-92
2021/03/02 03:10:06;;;;;;;35.03;18.13;;;3.30;99.90;;;;;;5012498;28;20022;-92
2021/03/02 03:12:54;;;;;;;31.50;16.45;;;3.30;99.90;;;;;;5012367;28;20033;-92
2021/03/02 03:15:21;;;;;;;32.35;17.27;;;3.30;99.90;;;;;;5012335;28;20026;-93
2021/03/02 03:17:52;;;;;;;33.80;18.13;;;3.30;99.90;;;;;;5013039;28;20026;-92
2021/03/02 03:20:21;;;;;;;32.88;17.98;;;3.30;99.90;;;;;;5013588;28;20030;-91
2021/03/02 03:22:48;;;;;;;36.13;19.42;;;3.30;99.90;;;;;;5011679;28;20108;-90
2021/03/02 03:25:14;;;;;;;34.20;18.33;;;3.30;99.90;;;;;;5012147;28;20018;-92
2021/03/02 03:27:43;;;;;;;34.08;18.10;;;3.30;99.90;;;;;;5011850;28;20472;-92
2021/03/02 03:30:11;;;;;;;41.20;20.25;;;3.30;99.90;;;;;;5011911;28;20014;-90
2021/03/02 03:32:38;;;;;;;34.80;18.45;;;3.30;99.90;;;;;;5011671;28;20037;-91
2021/03/02 03:35:04;;;;;;;34.60;18.50;;;3.30;99.90;;;;;;5012405;28;20414;-92
2021/03/02 03:37:30;;;;;;;35.92;18.80;;;3.20;99.90;;;;;;5015670;28;20037;-92
2021/03/02 03:39:55;;;;;;;35.20;17.98;;;3.20;99.90;;;;;;5016527;28;20069;-93
2021/03/02 03:42:21;;;;;;;33.05;17.60;;;3.20;99.90;;;;;;5012748;28;20125;-90
2021/03/02 03:44:48;;;;;;;32.47;17.92;;;3.20;99.90;;;;;;5013355;28;20061;-90
2021/03/02 03:47:14;;;;;;;37.85;19.30;;;3.20;99.90;;;;;;5012216;28;20058;-92
2021/03/02 03:49:39;;;;;;;29.02;16.70;;;3.20;99.90;;;;;;5011776;28;20030;-90
2021/03/02 03:52:08;;;;;;;35.40;17.95;;;3.20;99.90;;;;;;5011947;28;20061;-92
2021/03/02 03:54:35;;;;;;;33.15;17.55;;;3.10;99.90;;;;;;5012195;28;20027;-93
2021/03/02 03:57:02;;;;;;;31.67;16.88;;;3.10;99.90;;;;;;5011478;28;20022;-91
2021/03/02 03:59:28;;;;;;;34.72;17.40;;;3.10;99.90;;;;;;5012231;28;20065;-91
2021/03/02 04:01:56;;;;;;;35.35;18.15;;;3.10;99.90;;;;;;5016199;28;20069;-91
2021/03/02 04:04:24;;;;;;;31.27;15.93;;;3.00;99.90;;;;;;5014826;28;20073;-91
2021/03/02 04:06:50;;;;;;;30.75;15.45;;;3.00;99.90;;;;;;5014832;28;20010;-91
2021/03/02 04:09:17;;;;;;;31.08;16.27;;;2.90;99.90;;;;;;5014672;28;20026;-92
2021/03/02 04:11:43;;;;;;;31.35;15.85;;;2.90;99.90;;;;;;5014532;28;20050;-92
2021/03/02 04:14:09;;;;;;;34.03;16.98;;;2.90;99.90;;;;;;5014747;28;20080;-92
2021/03/02 04:16:36;;;;;;;28.85;15.93;;;2.90;99.90;;;;;;5014329;28;20113;-91
2021/03/02 04:19:03;;;;;;;31.25;16.90;;;2.90;99.90;;;;;;5013933;28;20022;-93
2021/03/02 04:21:29;;;;;;;33.60;17.13;;;2.90;99.90;;;;;;5014391;28;20026;-91
2021/03/02 04:23:54;;;;;;;33.67;16.85;;;2.90;99.90;;;;;;5014378;28;20022;-92
2021/03/02 04:26:20;;;;;;;30.60;16.02;;;2.90;99.90;;;;;;5014214;28;20026;-91
2021/03/02 04:28:46;;;;;;;31.75;15.75;;;2.90;99.90;;;;;;5014170;28;20137;-90
2021/03/02 04:31:11;;;;;;;31.50;16.75;;;2.80;99.90;;;;;;5014151;28;20025;-91
2021/03/02 04:33:37;;;;;;;31.42;15.63;;;2.90;99.90;;;;;;5014341;28;20029;-91
2021/03/02 04:36:05;;;;;;;31.80;16.42;;;2.80;99.90;;;;;;5017528;28;20499;-90
2021/03/02 04:38:32;;;;;;;31.30;17.05;;;2.80;99.90;;;;;;5005045;28;20026;-91
2021/03/02 04:40:57;;;;;;;30.23;16.90;;;2.80;99.90;;;;;;5016677;28;20022;-91
2021/03/02 04:43:26;;;;;;;31.25;15.80;;;2.80;99.90;;;;;;5016661;28;20026;-90
2021/03/02 04:45:52;;;;;;;33.67;16.85;;;2.80;99.90;;;;;;5018792;28;20026;-92
2021/03/02 04:48:18;;;;;;;30.15;15.52;;;2.80;99.90;;;;;;5014366;28;20048;-91
2021/03/02 04:50:44;;;;;;;30.67;16.13;;;2.80;99.90;;;;;;5015093;28;20026;-93
2021/03/02 04:53:10;;;;;;;33.08;16.63;;;2.80;99.90;;;;;;5016321;28;20026;-91
2021/03/02 04:55:36;;;;;;;32.33;16.52;;;2.70;99.90;;;;;;5016411;28;20022;-93
2021/03/02 04:58:01;;;;;;;31.65;15.43;;;2.70;99.90;;;;;;5013571;28;20479;-92
2021/03/02 05:00:27;;;;;;;29.55;16.25;;;2.70;99.90;;;;;;5014390;28;20164;-91
2021/03/02 05:02:53;;;;;;;30.02;15.73;;;2.70;99.90;;;;;;5011390;28;20057;-92
2021/03/02 05:05:18;;;;;;;29.13;15.25;;;2.70;99.90;;;;;;5010583;28;20023;-91
2021/03/02 05:07:44;;;;;;;29.63;15.48;;;2.70;99.90;;;;;;5010589;28;20032;-90
2021/03/02 05:10:10;;;;;;;28.38;14.65;;;2.70;99.90;;;;;;5010432;28;20476;-91
2021/03/02 05:12:36;;;;;;;29.75;15.48;;;2.70;99.90;;;;;;5010584;28;20045;-91
2021/03/02 05:15:01;;;;;;;31.48;16.20;;;2.60;99.90;;;;;;5010498;28;20015;-91
2021/03/02 05:17:27;;;;;;;31.40;16.58;;;2.60;99.90;;;;;;5010233;28;20420;-90
2021/03/02 05:19:53;;;;;;;31.35;16.23;;;2.60;99.90;;;;;;5010270;28;20041;-91
2021/03/02 05:22:18;;;;;;;28.70;14.85;;;2.60;99.90;;;;;;5010986;28;20031;-91
2021/03/02 05:24:44;;;;;;;29.30;15.25;;;2.60;99.90;;;;;;5011134;28;20027;-91
2021/03/02 05:27:09;;;;;;;26.83;14.27;;;2.60;99.90;;;;;;5014617;28;20022;-89
2021/03/02 05:29:35;;;;;;;29.10;15.15;;;2.60;99.90;;;;;;4997447;28;20027;-90
2021/03/02 05:32:01;;;;;;;28.50;15.02;;;2.50;99.90;;;;;;5014686;28;20030;-92
2021/03/02 05:34:26;;;;;;;29.40;15.25;;;2.50;99.90;;;;;;5014692;28;20026;-92
2021/03/02 05:36:52;;;;;;;27.73;14.57;;;2.50;99.90;;;;;;5017254;28;20688;-89
2021/03/02 05:39:17;;;;;;;29.65;15.48;;;2.50;99.90;;;;;;5024883;28;20030;-90
2021/03/02 05:41:44;;;;;;;33.53;16.40;;;2.50;99.90;;;;;;5013317;28;20042;-91
2021/03/02 05:44:57;;;;;;;;;;;;;;;;;;;;;
2021/03/02 05:51:12;;;;;;;;;;;;;;;;;;;;;
2021/03/02 05:54:20;;;;;;;27.17;15.00;;;2.50;99.90;;;;;;5015563;28;20140;-89
2021/03/02 05:57:49;;;;;;;;;;;;;;;;;;;;;
2021/03/02 06:11:49;;;;;;;;;;;;;;;;;;;;;
2021/03/02 06:15:25;;;;;;;;;;;;;;;;;;;;;
2021/03/02 06:21:57;;;;;;;;;;;;;;;;;;;;;
2021/03/02 06:25:11;;;;;;;;;;;;;;;;;;;;;
2021/03/02 06:28:15;;;;;;;29.23;14.70;;;2.40;99.90;;;;;;4976297;28;20037;-90
2021/03/02 06:34:26;;;;;;;;;;;2.50;99.90;;;;;;4937122;29;20028;-90
2021/03/02 06:37:40;;;;;;;;;;;;;;;;;;;;;
2021/03/02 06:43:49;;;;;;;;;;;;;;;;;;;;;
2021/03/02 06:47:04;;;;;;;28.75;14.30;;;2.50;99.90;;;;;;5033606;28;20033;-90
2021/03/02 06:53:53;;;;;;;;;;;;;;;;;;;;;
2021/03/02 06:56:46;;;;;;;;;;;;;;;;;;;;;
2021/03/02 11:41:03;;;;;;;;;;;;;;;;;;;;;
2021/03/02 12:29:02;;;;;;;;;;;;;;;;;;;;;
2021/03/02 12:49:39;;;;;;;;;;;;;;;;;;;;;
2021/03/02 12:53:23;;;;;;;;;;;;;;;;;;;;;
2021/03/02 13:12:37;;;;;;;;;;;;;;;;;;;;;
2021/03/02 16:37:19;;;;;;;;;;;;;;;;;;;;;
2021/03/02 16:46:37;;;;;;;20.17;13.93;;;15.30;80.50;;;;;;4871375;29;20552;-90
2021/03/02 16:49:41;;;;;;;21.60;13.20;;;15.20;79.50;;;;;;4873484;29;20169;-89
2021/03/02 16:59:53;;;;;;;17.20;10.32;;;15.00;82.30;;;;;;4780359;29;20039;-90
2021/03/02 17:03:38;;;;;;;15.50;10.25;;;14.90;83.20;;;;;;4772136;30;20082;-90
2021/03/02 17:07:03;;;;;;;;;;;;;;;;;;;;;
2021/03/02 17:10:15;;;;;;;;;;;;;;;;;;;;;
2021/03/02 17:13:21;;;;;;;;;;;;;;;;;;;;;
2021/03/02 17:19:35;;;;;;;13.30;8.82;;;14.50;82.80;;;;;;4821801;29;20106;-90
2021/03/02 17:23:32;;;;;;;13.48;8.05;;;14.40;82.80;;;;;;4883610;28;20082;-91
2021/03/02 17:26:46;;;;;;;;;;;;;;;;;;;;;
2021/03/02 17:33:07;;;;;;;25.17;18.17;;;14.10;82.80;;;;;;4994541;28;20034;-90
2021/03/02 17:35:46;;;;;;;;;;;;;;;;;;;;;
2021/03/02 17:38:51;;;;;;;;;;;;;;;;;;;;;
2021/03/02 17:42:04;;;;;;;95.38;70.95;;;13.80;83.50;;;;;;4988893;28;20054;-88
2021/03/02 17:44:59;;;;;;;91.28;65.93;;;13.70;83.70;;;;;;5003427;28;20060;-90
2021/03/02 17:47:35;;;;;;;69.00;50.03;;;13.60;84.00;;;;;;5023910;28;20041;-90
2021/03/02 17:50:26;;;;;;;53.88;36.17;;;13.40;84.00;;;;;;5031737;28;20037;-90
2021/03/02 17:55:39;;;;;;;32.00;21.30;;;13.10;84.50;;;;;;5032884;28;20063;-90
2021/03/02 17:59:00;;;;;;;;;;;;;;;;;;;;;
2021/03/02 18:02:46;;;;;;;21.27;13.57;;;12.80;84.80;;;;;;4972547;28;20041;-91
2021/03/02 18:05:36;;;;;;;20.17;12.88;;;12.60;85.20;;;;;;4881809;28;20053;-91
2021/03/02 18:08:28;;;;;;;;;;;;;;;;;;;;;
2021/03/02 18:14:12;;;;;;;16.92;11.70;;;12.20;86.10;;;;;;4979795;28;20035;-90
2021/03/02 18:17:34;;;;;;;15.63;10.27;;;12.10;86.30;;;;;;4967389;28;20034;-91
2021/03/02 18:20:44;;;;;;;15.07;9.77;;;12.00;86.60;;;;;;4970571;28;20064;-92
2021/03/02 18:24:03;;;;;;;16.70;10.20;;;11.90;86.90;;;;;;4996155;28;20602;-91
2021/03/02 18:26:46;;;;;;;18.65;10.35;;;11.70;87.20;;;;;;5020240;28;20044;-90
2021/03/02 18:32:57;;;;;;;16.42;10.05;;;11.60;87.70;;;;;;5030673;28;20042;-89
2021/03/02 18:35:34;;;;;;;14.05;10.02;;;11.40;88.00;;;;;;4947573;28;20449;-90
2021/03/02 18:38:42;;;;;;;;;;;;;;;;;;;;;
2021/03/02 18:41:57;;;;;;;15.88;10.10;;;11.20;88.80;;;;;;5029184;28;20045;-90
2021/03/02 18:44:36;;;;;;;;;;;11.10;89.00;;;;;;4969560;28;20046;-90
2021/03/02 18:47:31;;;;;;;13.25;9.48;;;10.90;89.50;;;;;;5010861;28;19941;-88
2021/03/02 18:50:29;;;;;;;14.60;9.95;;;10.80;89.90;;;;;;5027786;28;20031;-88
2021/03/02 18:53:29;;;;;;;16.52;10.90;;;10.80;90.00;;;;;;5011577;28;20038;-88
2021/03/02 18:55:59;;;;;;;17.27;10.27;;;10.70;90.10;;;;;;5046235;28;20040;-89
2021/03/02 19:06:14;;;;;;;;;;;;;;;;;;;;;
2021/03/02 19:09:14;;;;;;;;;;;;;;;;;;;;;
2021/03/02 19:12:01;;;;;;;;;;;;;;;;;;;;;
2021/03/02 19:14:58;;;;;;;19.90;13.27;;;10.20;91.20;;;;;;5034758;28;20507;-90
2021/03/02 19:18:25;;;;;;;;;;;;;;;;;;;;;
2021/03/02 19:21:24;;;;;;;21.23;12.77;;;10.10;91.60;;;;;;5034751;28;20038;-89
2021/03/02 19:24:47;;;;;;;;;;;;;;;;;;;;;
2021/03/02 19:28:22;;;;;;;;;;;;;;;;;;;;;
2021/03/02 19:42:05;;;;;;;;;;;;;;;;;;;;;
2021/03/02 19:48:53;;;;;;;;;;;;;;;;;;;;;
2021/03/02 19:51:46;;;;;;;;;;;;;;;;;;;;;
2021/03/02 19:57:52;;;;;;;18.00;10.98;;;9.20;93.10;;;;;;4818427;29;20053;-92
2021/03/02 20:00:23;;;;;;;17.95;11.75;;;9.10;93.20;;;;;;4775998;29;20082;-91
2021/03/02 20:03:01;;;;;;;19.58;11.68;;;9.10;93.40;;;;;;4751923;30;20508;-90
2021/03/02 20:06:12;;;;;;;18.65;12.13;;;9.10;93.50;;;;;;4811037;29;20051;-89
2021/03/02 20:09:00;;;;;;;21.92;13.20;;;9.00;93.60;;;;;;4900499;29;20074;-88
2021/03/02 20:11:44;;;;;;;20.02;12.55;;;8.90;93.80;;;;;;4989091;28;20037;-90
2021/03/02 20:14:35;;;;;;;;;;;;;;;;;;;;;
2021/03/02 20:17:32;;;;;;;18.52;12.80;;;8.80;94.00;;;;;;5044273;28;20029;-88
2021/03/02 20:20:32;;;;;;;20.30;12.98;;;8.80;94.20;;;;;;5049072;28;20472;-88
2021/03/02 20:26:12;;;;;;;16.85;11.80;;;8.80;94.30;;;;;;5025211;28;20044;-90
2021/03/02 20:29:09;;;;;;;18.60;11.95;;;8.70;94.40;;;;;;5038761;28;20056;-87
2021/03/02 20:32:25;;;;;;;20.08;12.52;;;8.60;94.40;;;;;;4987865;28;20030;-90
2021/03/02 20:34:54;;;;;;;18.63;12.23;;;8.60;94.50;;;;;;5028899;28;20040;-88
2021/03/02 20:41:10;;;;;;;19.45;12.63;;;8.50;94.80;;;;;;4980321;28;20050;-89
2021/03/02 20:44:06;;;;;;;18.98;12.40;;;8.40;94.90;;;;;;4984159;28;20042;-89
2021/03/02 20:46:57;;;;;;;18.30;12.75;;;8.30;95.20;;;;;;4994390;28;20190;-89
2021/03/02 20:50:05;;;;;;;21.13;13.38;;;8.20;95.40;;;;;;4916883;29;20038;-88
2021/03/02 20:52:57;;;;;;;17.67;11.77;;;8.20;95.50;;;;;;4962487;28;20049;-88
2021/03/02 20:56:12;;;;;;;21.25;13.55;;;8.20;95.60;;;;;;4973522;28;20596;-88
2021/03/02 20:59:06;;;;;;;24.02;15.35;;;8.10;95.80;;;;;;4968914;28;20072;-90
2021/03/02 21:01:40;;;;;;;27.00;16.30;;;8.00;96.00;;;;;;4991784;28;20034;-88
2021/03/02 21:04:55;;;;;;;;;;;;;;;;;;;;;
2021/03/02 21:07:29;;;;;;;21.17;13.23;;;7.90;96.30;;;;;;5007707;28;20140;-88
2021/03/02 21:10:00;;;;;;;22.10;14.07;;;7.80;96.40;;;;;;5044310;28;20033;-90
2021/03/02 21:12:27;;;;;;;21.02;13.85;;;7.80;96.50;;;;;;5045700;28;20034;-89
2021/03/02 21:18:36;;;;;;;18.67;12.02;;;7.70;96.70;;;;;;4987615;28;20049;-90
2021/03/02 21:25:02;;;;;;;;;;;;;;;;;;;;;
2021/03/02 21:35:32;;;;;;;19.35;11.07;;;7.80;96.90;;;;;;4827773;29;20070;-89
2021/03/02 21:38:31;;;;;;;16.73;11.50;;;7.70;97.20;;;;;;4859907;29;20131;-89
2021/03/02 21:41:10;;;;;;;20.92;12.43;;;7.70;97.00;;;;;;4874004;29;20123;-89
2021/03/02 21:43:39;;;;;;;19.52;12.43;;;7.70;97.10;;;;;;4956714;28;20046;-90
2021/03/02 21:49:40;;;;;;;22.95;13.35;;;7.60;97.30;;;;;;4994948;28;20366;-90
2021/03/02 21:52:17;;;;;;;18.25;11.82;;;7.50;97.40;;;;;;5008876;28;20139;-89
2021/03/02 21:55:29;;;;;;;21.63;12.05;;;7.40;97.50;;;;;;5005418;28;20058;-89
2021/03/02 21:58:26;;;;;;;19.00;11.57;;;7.40;97.40;;;;;;4972320;28;20137;-89
2021/03/02 22:00:57;;;;;;;21.20;12.80;;;7.40;97.60;;;;;;4988644;28;20042;-88
2021/03/02 22:03:30;;;;;;;19.10;11.80;;;7.30;97.70;;;;;;4992474;28;20030;-89
2021/03/02 22:06:04;;;;;;;19.95;11.98;;;7.20;97.80;;;;;;4992318;28;20060;-89
2021/03/02 22:09:01;;;;;;;16.05;11.40;;;7.20;97.90;;;;;;5001583;28;20069;-90
2021/03/02 22:11:30;;;;;;;19.05;11.73;;;7.20;98.00;;;;;;5002906;28;20134;-89
2021/03/02 22:14:43;;;;;;;20.45;12.48;;;7.10;98.00;;;;;;4992006;28;20125;-88
2021/03/02 22:20:44;;;;;;;20.02;12.20;;;7.10;98.30;;;;;;4988309;28;20765;-88
2021/03/02 22:23:12;;;;;;;21.08;12.60;;;7.10;98.50;;;;;;4998682;28;20498;-88
2021/03/02 22:25:47;;;;;;;23.73;13.65;;;7.10;98.40;;;;;;5029296;28;20077;-88
2021/03/02 22:28:17;;;;;;;19.55;12.65;;;7.00;98.50;;;;;;5024572;28;20053;-88
2021/03/02 22:30:50;;;;;;;20.33;12.13;;;7.00;98.60;;;;;;5031600;28;20682;-89
2021/03/02 22:33:22;;;;;;;20.63;12.90;;;7.00;98.50;;;;;;5034680;28;20559;-88
2021/03/02 22:36:01;;;;;;;21.00;12.93;;;7.00;98.60;;;;;;5034595;28;20029;-86
2021/03/02 22:39:17;;;;;;;20.20;13.55;;;7.00;98.70;;;;;;5035371;28;20545;-88
2021/03/02 22:42:09;;;;;;;22.40;13.70;;;7.00;98.70;;;;;;5035867;28;20038;-88
2021/03/02 22:44:48;;;;;;;20.65;12.30;;;6.90;98.70;;;;;;5034202;28;20096;-87
2021/03/02 22:47:37;;;;;;;18.70;11.75;;;6.80;98.80;;;;;;5036617;28;20393;-87
2021/03/02 22:50:47;;;;;;;20.48;11.93;;;6.80;98.90;;;;;;5035689;28;20045;-88
2021/03/02 22:53:25;;;;;;;18.45;11.77;;;6.80;99.20;;;;;;5035254;28;20037;-88
2021/03/02 22:59:00;;;;;;;20.13;12.15;;;6.70;99.00;;;;;;5020975;28;20045;-90
2021/03/02 23:01:31;;;;;;;21.30;12.32;;;6.70;99.10;;;;;;5016399;28;20025;-88
2021/03/02 23:03:57;;;;;;;20.60;11.88;;;6.70;99.10;;;;;;5018690;28;20042;-88
2021/03/02 23:06:31;;;;;;;21.17;12.68;;;6.60;99.20;;;;;;5002689;28;20129;-89
2021/03/02 23:08:59;;;;;;;22.15;11.98;;;6.60;99.20;;;;;;5053160;28;20099;-89
2021/03/02 23:11:33;;;;;;;18.75;11.27;;;6.60;99.20;;;;;;5039972;28;20037;-87
2021/03/02 23:14:19;;;;;;;19.95;11.70;;;6.60;99.60;;;;;;5031675;28;20037;-89
2021/03/02 23:16:51;;;;;;;19.52;11.60;;;6.50;99.40;;;;;;5023165;28;20036;-90
2021/03/02 23:19:22;;;;;;;18.70;11.77;;;6.50;99.40;;;;;;5035803;28;20048;-90
2021/03/02 23:21:49;;;;;;;16.83;11.05;;;6.50;99.50;;;;;;5015721;28;20410;-88
2021/03/02 23:24:18;;;;;;;20.50;12.82;;;6.40;99.50;;;;;;5048608;28;20100;-87
2021/03/02 23:27:19;;;;;;;;;;;;;;;;;;;;;
2021/03/02 23:29:49;;;;;;;18.10;11.55;;;6.40;99.60;;;;;;5021821;28;20469;-89
2021/03/02 23:32:20;;;;;;;18.55;11.77;;;6.30;99.60;;;;;;5020249;28;20045;-87
2021/03/02 23:35:05;;;;;;;22.15;12.68;;;6.30;99.70;;;;;;5035314;28;20025;-86
2021/03/02 23:37:41;;;;;;;22.40;13.40;;;6.30;99.80;;;;;;5015513;28;20072;-89
2021/03/02 23:40:11;;;;;;;20.95;12.85;;;6.20;99.90;;;;;;5047711;28;20032;-88
2021/03/02 23:42:38;;;;;;;19.70;12.32;;;6.20;99.90;;;;;;5023166;28;20033;-89
2021/03/02 23:45:12;;;;;;;19.75;12.00;;;6.10;99.90;;;;;;5035280;28;20029;-90
2021/03/02 23:47:39;;;;;;;19.70;12.20;;;6.10;99.90;;;;;;5037943;28;20042;-90
2021/03/02 23:50:08;;;;;;;15.60;10.90;;;6.10;99.90;;;;;;5031456;28;20044;-90
2021/03/02 23:52:35;;;;;;;20.17;12.32;;;6.10;99.90;;;;;;5022076;28;20098;-90
2021/03/02 23:55:02;;;;;;;17.95;11.45;;;6.10;99.90;;;;;;5024481;28;20095;-89
2021/03/02 23:57:41;;;;;;;18.13;11.82;;;6.00;99.90;;;;;;5024238;28;20022;-90
